Time;durP1;ratioP1;P1;durP2;ratioP2;P2;SDS_P1;SDS_P2;PMS_P1;PMS_P2;Temp;Humidity;BMP_temperature;BMP_pressure;BME280_temperature;BME280_humidity;BME280_pressure;Samples;Min_cycle;Max_cycle;Signal;HPM_P1;HPM_P2
2023/10/10 00:02:24;;;;;;;0.47;0.47;;;;;;;12.60;65.75;94901.81;5087039;28;20205;-75
2023/10/10 00:04:51;;;;;;;0.30;0.30;;;;;;;12.64;65.48;94905.47;5086188;28;20199;-74
2023/10/10 00:07:20;;;;;;;0.50;0.50;;;;;;;12.54;65.61;94905.88;5086928;28;20212;-75
2023/10/10 00:09:50;;;;;;;0.15;0.15;;;;;;;12.48;66.14;94907.19;5085502;28;20202;-75
2023/10/10 00:12:28;;;;;;;0.40;0.40;;;;;;;12.54;66.39;94891.50;5066446;28;20216;-75
2023/10/10 00:14:58;;;;;;;2.75;0.88;;;;;;;12.76;65.47;94904.72;5054989;28;20269;-75
2023/10/10 00:17:29;;;;;;;0.20;0.20;;;;;;;12.86;65.11;94892.63;5066768;28;20290;-74
2023/10/10 00:20:15;;;;;;;0.35;0.35;;;;;;;13.01;64.98;94889.25;5066631;28;20602;-74
2023/10/10 00:22:47;;;;;;;0.20;0.20;;;;;;;13.15;65.00;94878.91;5066432;28;20217;-74
2023/10/10 00:25:16;;;;;;;0.35;0.35;;;;;;;13.18;64.83;94883.66;5066077;28;20205;-75
2023/10/10 00:27:44;;;;;;;0.25;0.25;;;;;;;13.32;64.89;94881.44;5057982;28;20254;-74
2023/10/10 00:30:12;;;;;;;0.43;0.43;;;;;;;13.06;65.37;94886.34;5066136;28;20632;-78
2023/10/10 00:32:42;;;;;;;0.20;0.20;;;;;;;13.12;65.52;94880.34;5052540;28;20283;-78
2023/10/10 00:35:10;;;;;;;0.43;0.43;;;;;;;13.23;65.54;94874.50;5052973;28;20212;-78
2023/10/10 00:37:37;;;;;;;0.43;0.43;;;;;;;13.25;65.81;94873.03;5053164;28;20273;-78
2023/10/10 00:40:08;;;;;;;0.20;0.20;;;;;;;13.23;65.98;94875.31;5052758;28;20231;-78
2023/10/10 00:42:40;;;;;;;0.20;0.20;;;;;;;13.18;65.91;94872.78;5052755;28;20204;-79
2023/10/10 00:45:12;;;;;;;0.30;0.30;;;;;;;12.91;66.49;94879.63;5052549;28;20214;-79
2023/10/10 00:47:43;;;;;;;0.40;0.40;;;;;;;12.79;66.97;94888.53;5052649;28;20286;-78
2023/10/10 00:50:16;;;;;;;0.55;0.55;;;;;;;12.73;67.03;94884.41;5052417;28;20199;-78
2023/10/10 00:52:44;;;;;;;0.45;0.45;;;;;;;12.80;66.53;94873.81;5052490;28;20265;-79
2023/10/10 00:55:13;;;;;;;0.10;0.10;;;;;;;12.72;66.84;94882.84;5052313;28;20208;-79
2023/10/10 00:57:42;;;;;;;0.15;0.15;;;;;;;12.62;67.06;94883.25;5052670;28;20576;-79
2023/10/10 01:00:14;;;;;;;0.40;0.40;;;;;;;12.73;66.86;94883.63;5052371;28;20238;-78
2023/10/10 01:02:42;;;;;;;0.20;0.20;;;;;;;12.81;66.80;94882.75;5052084;28;20296;-78
2023/10/10 01:05:13;;;;;;;0.30;0.30;;;;;;;12.84;66.84;94873.16;5052496;28;20262;-79
2023/10/10 01:07:40;;;;;;;0.20;0.20;;;;;;;12.84;66.94;94878.59;5052569;28;20611;-78
2023/10/10 01:10:11;;;;;;;0.40;0.40;;;;;;;12.77;67.12;94873.69;5052371;28;20224;-79
2023/10/10 01:12:42;;;;;;;0.15;0.15;;;;;;;12.75;66.59;94871.28;5051898;28;20200;-79
2023/10/10 01:15:14;;;;;;;0.20;0.20;;;;;;;12.87;66.11;94861.59;5051872;28;20211;-78
2023/10/10 01:17:42;;;;;;;0.10;0.10;;;;;;;12.81;65.05;94869.97;5051417;28;20540;-78
2023/10/10 01:20:17;;;;;;;0.17;0.17;;;;;;;12.82;62.27;94866.13;5051918;28;20242;-77
2023/10/10 01:22:47;;;;;;;1.33;0.65;;;;;;;12.95;61.89;94858.00;5052078;28;20214;-77
2023/10/10 01:25:40;;;;;;;1.70;0.93;;;;;;;12.92;62.46;94859.47;5051553;28;20208;-78
2023/10/10 01:28:22;;;;;;;3.10;1.00;;;;;;;13.01;62.32;94868.31;5051924;28;20204;-79
2023/10/10 01:31:03;;;;;;;0.35;0.35;;;;;;;12.87;63.08;94861.59;5050995;28;20235;-78
2023/10/10 01:33:41;;;;;;;1.77;1.00;;;;;;;12.90;63.66;94877.22;5052006;28;20615;-77
2023/10/10 01:36:13;;;;;;;1.30;1.10;;;;;;;12.91;63.85;94878.81;5051463;28;20593;-78
2023/10/10 01:39:28;;;;;;;1.60;0.93;;;;;;;12.79;64.35;94872.22;5051621;28;20204;-78
2023/10/10 01:41:55;;;;;;;0.82;0.80;;;;;;;12.76;64.37;94883.75;4989848;28;20754;-78
2023/10/10 01:44:23;;;;;;;1.38;1.10;;;;;;;12.65;64.86;94879.88;5044229;28;20207;-77
2023/10/10 01:46:52;;;;;;;1.10;1.00;;;;;;;12.64;64.56;94891.88;5051677;28;20195;-77
2023/10/10 01:49:21;;;;;;;2.78;1.05;;;;;;;12.63;64.50;94893.00;5051232;28;20203;-78
2023/10/10 01:51:53;;;;;;;3.47;0.95;;;;;;;12.65;64.05;94892.66;5051439;28;20215;-78
2023/10/10 01:54:22;;;;;;;1.42;0.65;;;;;;;12.63;64.39;94895.72;5049683;28;20243;-78
2023/10/10 01:56:51;;;;;;;1.70;0.90;;;;;;;12.76;64.18;94897.34;5050805;28;20199;-78
2023/10/10 01:59:24;;;;;;;1.98;1.05;;;;;;;12.86;64.29;94887.19;5051311;28;20218;-78
2023/10/10 02:01:53;;;;;;;0.40;0.40;;;;;;;13.07;63.84;94888.72;5049032;28;20219;-78
2023/10/10 02:04:27;;;;;;;0.20;0.20;;;;;;;13.24;64.08;94887.78;5051053;28;20607;-79
2023/10/10 02:06:57;;;;;;;0.20;0.20;;;;;;;13.24;63.66;94884.25;5051281;28;20238;-78
2023/10/10 02:09:33;;;;;;;0.40;0.40;;;;;;;13.41;63.54;94890.28;5051137;28;20648;-78
2023/10/10 02:12:12;;;;;;;0.20;0.20;;;;;;;13.34;63.42;94890.06;5050734;28;20706;-78
2023/10/10 02:14:42;;;;;;;0.20;0.20;;;;;;;13.26;63.58;94887.41;5049334;28;20227;-76
2023/10/10 02:17:20;;;;;;;0.20;0.20;;;;;;;13.26;64.13;94901.03;5049926;28;20285;-77
2023/10/10 02:19:57;;;;;;;0.22;0.22;;;;;;;13.63;64.11;94899.16;5050940;28;20223;-78
2023/10/10 02:22:33;;;;;;;0.43;0.43;;;;;;;14.73;62.42;94881.50;5048141;28;20207;-78
2023/10/10 02:27:55;;;;;;;0.10;0.10;;;;;;;15.77;59.12;94882.22;5036343;28;20719;-79
2023/10/10 02:30:34;;;;;;;0.10;0.10;;;;;;;15.91;58.47;94877.09;5050743;28;20622;-79
2023/10/10 02:33:12;;;;;;;0.20;0.20;;;;;;;15.99;57.85;94865.97;5051002;28;20226;-78
2023/10/10 02:35:54;;;;;;;0.10;0.10;;;;;;;16.16;57.35;94875.72;5050547;28;20199;-79
2023/10/10 02:38:23;;;;;;;0.30;0.30;;;;;;;16.50;57.83;94865.13;5050488;28;20219;-79
2023/10/10 02:40:53;;;;;;;0.43;0.40;;;;;;;16.61;57.85;94860.66;5050443;28;20301;-79
2023/10/10 02:43:33;;;;;;;0.20;0.20;;;;;;;16.61;57.81;94863.41;5050468;28;20617;-78
2023/10/10 02:46:00;;;;;;;0.10;0.10;;;;;;;16.74;57.68;94862.13;5050713;28;20616;-78
2023/10/10 02:48:34;;;;;;;0.20;0.20;;;;;;;16.76;57.84;94857.09;5050060;28;20207;-76
2023/10/10 02:51:03;;;;;;;0.43;0.25;;;;;;;16.74;57.95;94862.13;5050149;28;20196;-77
2023/10/10 02:53:32;;;;;;;0.20;0.20;;;;;;;16.76;58.70;94853.56;5050248;28;20306;-76
2023/10/10 02:56:01;;;;;;;0.63;0.57;;;;;;;16.72;58.98;94850.75;5050594;28;20200;-76
2023/10/10 02:58:38;;;;;;;0.98;0.70;;;;;;;16.71;58.36;94838.22;5045823;28;20206;-77
2023/10/10 03:01:10;;;;;;;0.75;0.75;;;;;;;16.72;58.35;94841.75;5047489;28;20713;-77
2023/10/10 03:03:41;;;;;;;0.70;0.70;;;;;;;16.61;58.87;94836.84;5050459;28;20282;-77
2023/10/10 03:06:09;;;;;;;1.80;1.70;;;;;;;16.76;59.21;94840.69;5049865;28;20273;-77
2023/10/10 03:08:51;;;;;;;0.20;0.20;;;;;;;16.77;60.20;94841.47;5044285;28;20210;-77
2023/10/10 03:11:35;;;;;;;0.47;0.47;;;;;;;16.83;60.36;94843.53;5050270;28;20599;-78
2023/10/10 03:14:07;;;;;;;1.35;0.38;;;;;;;16.85;61.54;94841.25;5050682;28;20739;-76
2023/10/10 03:16:44;;;;;;;0.20;0.20;;;;;;;16.91;61.19;94853.50;5050016;28;20279;-79
2023/10/10 03:19:19;;;;;;;0.22;0.20;;;;;;;16.96;60.82;94847.69;5050262;28;20659;-79
2023/10/10 03:21:51;;;;;;;0.20;0.20;;;;;;;16.95;61.43;94850.81;5049924;28;20668;-79
2023/10/10 03:24:36;;;;;;;1.55;1.00;;;;;;;17.00;61.48;94853.25;5049429;28;20222;-80
2023/10/10 03:27:48;;;;;;;0.38;0.38;;;;;;;16.98;60.98;94850.06;5050048;28;20283;-78
2023/10/10 03:30:17;;;;;;;1.10;0.85;;;;;;;17.00;61.56;94862.25;5049987;28;20203;-77
2023/10/10 03:32:59;;;;;;;0.40;0.30;;;;;;;16.97;61.54;94865.72;5036815;28;20199;-77
2023/10/10 03:35:34;;;;;;;0.65;0.60;;;;;;;17.00;61.56;94865.00;5050016;28;20601;-77
2023/10/10 03:38:42;;;;;;;0.25;0.25;;;;;;;17.02;61.48;94879.09;5049864;28;20207;-76
2023/10/10 03:41:24;;;;;;;0.32;0.32;;;;;;;16.97;61.71;94892.28;5038203;28;20338;-80
2023/10/10 05:25:31;;;;;;;0.20;0.20;;;;;;;16.68;63.52;94962.03;5026031;28;20300;-76
2023/10/10 05:27:59;;;;;;;0.10;0.10;;;;;;;16.64;64.09;94961.19;5052228;28;20208;-76
2023/10/10 05:30:39;;;;;;;0.95;0.60;;;;;;;16.63;64.42;94965.09;5051873;28;20254;-75
2023/10/10 05:33:07;;;;;;;0.77;0.60;;;;;;;16.61;64.45;94961.88;5052239;28;20624;-75
2023/10/10 05:35:36;;;;;;;0.35;0.35;;;;;;;16.57;65.07;94955.53;5051803;28;20204;-77
2023/10/10 05:38:07;;;;;;;0.60;0.60;;;;;;;16.59;65.23;94972.38;5052438;28;20204;-75
2023/10/10 05:40:34;;;;;;;0.22;0.22;;;;;;;16.57;65.27;94977.41;5051989;28;20222;-77
2023/10/10 05:43:02;;;;;;;1.10;0.70;;;;;;;16.56;65.07;94959.41;5051850;28;20230;-76
2023/10/10 05:45:29;;;;;;;0.20;0.20;;;;;;;16.59;65.19;94964.97;5051336;28;20215;-76
2023/10/10 05:47:56;;;;;;;0.85;0.57;;;;;;;16.61;65.17;94968.13;5052231;28;20219;-76
2023/10/10 05:50:23;;;;;;;0.10;0.10;;;;;;;16.75;64.92;94958.69;5051647;28;20575;-76
2023/10/10 05:52:51;;;;;;;0.30;0.30;;;;;;;16.76;64.54;94947.38;5051762;28;20215;-76
2023/10/10 05:55:19;;;;;;;0.20;0.20;;;;;;;16.87;64.36;94953.88;5051244;28;20218;-75
2023/10/10 05:57:46;;;;;;;0.17;0.17;;;;;;;17.00;63.90;94952.56;5051093;28;20223;-74
2023/10/10 06:00:14;;;;;;;2.05;1.88;;;;;;;17.43;62.91;94947.94;5051417;28;20207;-75
2023/10/10 06:02:43;;;;;;;0.80;0.50;;;;;;;17.85;61.51;94952.63;5051152;28;20314;-74
2023/10/10 06:05:10;;;;;;;2.60;1.30;;;;;;;18.28;60.38;94954.91;5051605;28;20199;-75
2023/10/10 06:07:42;;;;;;;0.55;0.55;;;;;;;18.58;59.26;94954.16;5051211;28;20665;-77
2023/10/10 06:10:14;;;;;;;0.30;0.30;;;;;;;18.88;58.33;94938.50;5051254;28;20587;-77
2023/10/10 06:12:43;;;;;;;0.22;0.22;;;;;;;18.55;59.25;94943.94;5051024;28;20238;-77
2023/10/10 06:15:16;;;;;;;0.73;0.73;;;;;;;18.07;60.83;94951.81;5051336;28;20258;-75
2023/10/10 06:17:43;;;;;;;5.28;0.73;;;;;;;17.81;61.60;94957.25;5051071;28;20704;-78
2023/10/10 06:20:16;;;;;;;0.30;0.30;;;;;;;17.75;61.90;94943.06;5051173;28;20250;-79
2023/10/10 06:22:44;;;;;;;1.20;0.57;;;;;;;17.97;61.44;94949.69;5050631;28;20306;-79
2023/10/10 06:25:12;;;;;;;0.30;0.30;;;;;;;18.15;60.80;94950.78;5050987;28;20316;-79
2023/10/10 06:27:40;;;;;;;0.60;0.60;;;;;;;18.13;61.31;94953.09;5050233;28;20208;-79
2023/10/10 06:30:17;;;;;;;0.20;0.20;;;;;;;18.22;60.63;94956.34;5048826;28;20195;-79
2023/10/10 06:32:44;;;;;;;1.30;0.80;;;;;;;18.02;61.35;94958.41;5047696;28;20268;-79
2023/10/10 06:35:26;;;;;;;0.70;0.70;;;;;;;18.17;61.00;94956.69;5050742;28;20552;-80
2023/10/10 06:37:53;;;;;;;0.65;0.65;;;;;;;18.65;58.85;94963.31;5051191;28;20243;-79
2023/10/10 06:40:25;;;;;;;0.52;0.52;;;;;;;19.28;57.42;94965.28;5050313;28;20552;-79
2023/10/10 06:42:54;;;;;;;0.88;0.75;;;;;;;19.24;57.17;94964.47;5050758;28;20266;-78
2023/10/10 06:45:23;;;;;;;1.05;0.60;;;;;;;18.93;58.04;94964.88;5050385;28;20669;-79
2023/10/10 06:47:52;;;;;;;0.30;0.30;;;;;;;18.76;58.47;94969.75;5051021;28;20211;-80
2023/10/10 06:50:21;;;;;;;0.20;0.20;;;;;;;18.66;59.02;94964.09;5050128;28;20235;-79
2023/10/10 06:52:52;;;;;;;0.20;0.20;;;;;;;18.94;58.17;94964.50;5049665;28;20203;-78
2023/10/10 06:55:22;;;;;;;0.10;0.10;;;;;;;18.79;58.72;94963.50;5048179;28;20219;-77
2023/10/10 06:57:58;;;;;;;0.30;0.30;;;;;;;18.63;59.20;94953.84;5049862;28;20199;-78
2023/10/10 07:00:40;;;;;;;0.22;0.22;;;;;;;18.26;60.49;94973.66;5049783;28;20282;-78
2023/10/10 07:03:07;;;;;;;1.83;0.80;;;;;;;18.41;60.39;94986.47;5049158;28;20618;-77
2023/10/10 07:05:34;;;;;;;11.40;0.80;;;;;;;18.32;60.16;94983.16;5049938;28;20204;-78
2023/10/10 07:08:12;;;;;;;0.30;0.30;;;;;;;18.23;60.54;94979.88;5050755;28;20553;-75
2023/10/10 07:10:42;;;;;;;0.22;0.22;;;;;;;18.69;60.19;94982.59;5049872;28;20300;-77
2023/10/10 07:13:12;;;;;;;0.20;0.20;;;;;;;18.66;59.84;94980.56;5037929;28;20390;-77
2023/10/10 07:15:42;;;;;;;0.57;0.57;;;;;;;18.48;60.58;94985.75;5048563;28;20273;-78
2023/10/10 07:18:14;;;;;;;1.17;0.65;;;;;;;18.26;60.88;94983.84;5049738;28;20290;-76
2023/10/10 07:23:36;;;;;;;0.15;0.15;;;;;;;18.45;60.77;94992.75;5040870;28;20211;-77
2023/10/10 07:26:05;;;;;;;1.52;0.90;;;;;;;18.17;61.11;94989.59;5047913;28;20199;-76
2023/10/10 07:28:47;;;;;;;0.20;0.20;;;;;;;18.30;61.20;94971.78;5046530;28;21060;-78
2023/10/10 07:31:18;;;;;;;0.65;0.57;;;;;;;18.19;61.51;94978.22;5039806;28;20199;-76
2023/10/10 07:33:54;;;;;;;1.08;0.95;;;;;;;18.12;61.94;94995.38;5039246;28;20215;-77
2023/10/10 07:36:24;;;;;;;0.38;0.38;;;;;;;18.37;61.19;94985.59;5049444;28;20302;-79
2023/10/10 07:38:54;;;;;;;0.17;0.17;;;;;;;18.61;61.11;94991.84;5036890;28;20298;-78
2023/10/10 07:41:27;;;;;;;0.20;0.20;;;;;;;19.01;59.44;94992.03;5047934;28;20231;-77
2023/10/10 07:43:58;;;;;;;0.40;0.40;;;;;;;19.02;59.62;94988.13;5047342;28;20207;-75
2023/10/10 07:46:27;;;;;;;0.50;0.50;;;;;;;19.05;59.60;94992.88;5053457;28;20214;-79
2023/10/10 07:48:54;;;;;;;0.10;0.10;;;;;;;19.22;59.39;95001.72;5049992;28;20600;-75
2023/10/10 07:51:28;;;;;;;0.95;0.65;;;;;;;19.57;58.88;94993.91;5053138;28;20211;-76
2023/10/10 07:54:10;;;;;;;0.20;0.20;;;;;;;19.59;58.43;94994.34;5053566;28;20668;-75
2023/10/10 07:56:45;;;;;;;0.22;0.22;;;;;;;19.38;59.29;94999.56;5053376;28;20278;-76
2023/10/10 07:59:12;;;;;;;0.88;0.30;;;;;;;19.07;59.66;95001.53;5053434;28;20629;-76
2023/10/10 08:01:42;;;;;;;8.63;2.22;;;;;;;18.98;59.82;94992.78;5052934;28;20231;-74
2023/10/10 08:04:12;;;;;;;0.95;0.68;;;;;;;19.20;59.22;94993.06;5053360;28;20216;-76
2023/10/10 08:06:39;;;;;;;2.40;0.77;;;;;;;18.93;60.19;94995.84;5053520;28;20672;-77
2023/10/10 08:09:18;;;;;;;0.52;0.52;;;;;;;18.85;60.09;95002.41;5053116;28;20234;-75
2023/10/10 08:11:45;;;;;;;1.05;0.90;;;;;;;18.92;60.25;95010.75;5051678;28;20233;-77
2023/10/10 08:14:31;;;;;;;0.30;0.30;;;;;;;19.10;59.75;95017.28;5053762;28;20625;-76
2023/10/10 08:17:04;;;;;;;0.35;0.35;;;;;;;18.34;61.85;95019.25;5053709;28;20272;-77
2023/10/10 08:19:33;;;;;;;0.98;0.95;;;;;;;18.05;62.35;95012.50;5052707;28;20243;-75
2023/10/10 08:22:12;;;;;;;0.55;0.55;;;;;;;18.06;62.89;95027.00;5053211;28;20231;-75
2023/10/10 08:24:43;;;;;;;0.32;0.32;;;;;;;18.01;63.08;95027.31;5052785;28;20265;-75
2023/10/10 08:27:11;;;;;;;0.15;0.15;;;;;;;17.84;63.92;95016.81;5052668;28;20214;-75
2023/10/10 08:29:38;;;;;;;0.20;0.20;;;;;;;17.80;63.91;95015.94;5052657;28;20556;-75
2023/10/10 08:32:06;;;;;;;1.55;1.02;;;;;;;17.83;63.86;95020.72;5053096;28;20572;-75
2023/10/10 08:34:38;;;;;;;0.32;0.32;;;;;;;17.91;63.76;95012.25;5053085;28;20606;-75
2023/10/10 08:37:05;;;;;;;0.20;0.20;;;;;;;18.15;63.41;95022.06;5052877;28;20566;-77
2023/10/10 08:39:35;;;;;;;0.63;0.63;;;;;;;17.97;63.51;95035.47;5051817;28;20604;-76
2023/10/10 08:42:05;;;;;;;0.45;0.45;;;;;;;18.01;63.70;95024.56;5051417;28;20219;-76
2023/10/10 08:44:37;;;;;;;0.68;0.30;;;;;;;17.91;63.87;95030.63;5051798;28;20203;-74
2023/10/10 08:47:10;;;;;;;0.20;0.20;;;;;;;17.82;64.25;95027.34;5052887;28;20196;-74
2023/10/10 08:49:41;;;;;;;1.38;0.77;;;;;;;17.85;64.00;95029.38;5052353;28;20622;-75
2023/10/10 08:52:08;;;;;;;0.35;0.35;;;;;;;17.91;63.88;95028.69;5052808;28;20676;-75
2023/10/10 08:54:38;;;;;;;0.20;0.20;;;;;;;17.85;64.37;95034.84;5052229;28;20207;-74
2023/10/10 08:57:10;;;;;;;0.77;0.77;;;;;;;17.77;64.64;95024.91;5052686;28;20200;-74
2023/10/10 08:59:42;;;;;;;0.20;0.20;;;;;;;17.76;64.68;95037.81;5052600;28;20195;-74
2023/10/10 09:02:12;;;;;;;0.30;0.30;;;;;;;17.86;64.40;95041.91;5052562;28;20239;-74
2023/10/10 09:04:39;;;;;;;0.35;0.35;;;;;;;17.64;64.91;95036.00;5052189;28;20215;-75
2023/10/10 09:07:19;;;;;;;0.30;0.30;;;;;;;17.65;65.02;95037.59;5052661;28;20211;-74
2023/10/10 09:09:54;;;;;;;0.60;0.60;;;;;;;17.64;64.79;95038.75;5052648;28;20291;-74
2023/10/10 09:12:21;;;;;;;0.40;0.40;;;;;;;17.90;64.50;95031.81;5052370;28;20199;-74
2023/10/10 09:14:49;;;;;;;0.20;0.20;;;;;;;17.77;64.95;95039.38;5052793;28;20551;-77
2023/10/10 09:17:28;;;;;;;2.33;0.70;;;;;;;17.79;64.69;95036.28;5052142;28;20214;-74
2023/10/10 09:19:57;;;;;;;1.73;1.63;;;;;;;17.86;64.93;95036.44;5051872;28;20235;-74
2023/10/10 09:22:30;;;;;;;0.43;0.43;;;;;;;18.00;63.81;95033.94;5051674;28;20232;-74
2023/10/10 09:24:59;;;;;;;1.08;0.43;;;;;;;18.33;63.22;95031.38;5050165;28;20283;-75
2023/10/10 09:27:28;;;;;;;0.45;0.45;;;;;;;18.54;62.33;95027.41;5052297;28;20217;-76
2023/10/10 09:30:00;;;;;;;0.28;0.28;;;;;;;18.74;62.14;95026.16;5052462;28;20528;-75
2023/10/10 09:32:36;;;;;;;4.80;0.63;;;;;;;18.54;61.96;95016.44;5052294;28;20254;-75
2023/10/10 09:35:08;;;;;;;0.10;0.10;;;;;;;18.59;62.03;95021.63;5052452;28;20230;-76
2023/10/10 09:37:42;;;;;;;0.60;0.50;;;;;;;18.72;61.73;95017.53;5050772;28;20203;-77
2023/10/10 09:40:16;;;;;;;1.27;0.57;;;;;;;18.79;61.48;95028.59;5052646;28;20215;-75
2023/10/10 09:43:03;;;;;;;0.25;0.25;;;;;;;19.02;60.93;95018.31;5051933;28;20242;-76
2023/10/10 09:48:33;;;;;;;0.47;0.47;;;;;;;19.19;60.40;95011.50;5051879;28;20206;-76
2023/10/10 09:51:16;;;;;;;0.20;0.20;;;;;;;19.29;59.91;95016.31;5051927;28;20223;-76
2023/10/10 09:53:46;;;;;;;0.20;0.20;;;;;;;19.32;59.92;95012.03;5051587;28;20211;-73
2023/10/10 09:56:15;;;;;;;0.80;0.80;;;;;;;19.18;59.96;95018.16;5051620;28;20203;-75
2023/10/10 09:58:46;;;;;;;1.42;0.80;;;;;;;19.44;59.27;94998.06;5051339;28;20207;-73
2023/10/10 10:01:22;;;;;;;0.20;0.20;;;;;;;20.48;57.25;95000.72;5051871;28;20571;-76
2023/10/10 10:03:59;;;;;;;0.30;0.30;;;;;;;20.41;57.03;95006.94;5050405;28;20556;-75
2023/10/10 10:06:54;;;;;;;0.28;0.28;;;;;;;20.08;57.94;95004.28;5051341;28;20238;-79
2023/10/10 10:10:09;;;;;;;0.10;0.10;;;;;;;20.09;57.99;95008.63;5045286;28;20211;-77
2023/10/10 10:13:13;;;;;;;1.42;0.77;;;;;;;20.05;57.53;94994.03;5024725;28;20216;-77
2023/10/10 10:15:54;;;;;;;0.93;0.73;;;;;;;20.46;56.01;94992.84;5050994;28;20673;-77
2023/10/10 10:18:28;;;;;;;0.20;0.20;;;;;;;20.64;56.22;94997.69;5051637;28;20230;-76
2023/10/10 10:21:18;;;;;;;0.60;0.60;;;;;;;20.42;56.20;95003.03;5050992;28;20253;-75
2023/10/10 10:24:02;;;;;;;2.85;0.85;;;;;;;20.42;56.73;94991.22;5051177;28;20641;-78
2023/10/10 10:26:41;;;;;;;1.27;0.90;;;;;;;20.29;56.74;94990.69;5051185;28;20555;-77
2023/10/10 10:29:15;;;;;;;0.75;0.75;;;;;;;19.92;57.48;94984.47;5051254;28;20655;-79
2023/10/10 10:31:51;;;;;;;0.43;0.40;;;;;;;20.20;57.62;94990.25;5051307;28;20199;-77
2023/10/10 10:34:25;;;;;;;1.02;0.55;;;;;;;20.44;56.46;94988.88;5051030;28;20211;-76
2023/10/10 10:37:06;;;;;;;0.52;0.43;;;;;;;20.57;56.35;94998.41;5051108;28;20235;-79
2023/10/10 10:39:36;;;;;;;0.45;0.30;;;;;;;20.28;57.05;94986.38;5050823;28;20549;-76
2023/10/10 10:42:11;;;;;;;0.47;0.47;;;;;;;20.14;56.82;94975.22;5050942;28;20294;-77
2023/10/10 10:44:55;;;;;;;2.30;0.75;;;;;;;19.62;57.73;94977.09;5050941;28;20579;-76
2023/10/10 10:47:45;;;;;;;4.38;0.70;;;;;;;19.16;59.33;94977.31;5051115;28;20695;-75
2023/10/10 10:50:28;;;;;;;1.05;0.77;;;;;;;19.27;59.41;94977.44;5050654;28;20246;-76
2023/10/10 10:53:05;;;;;;;0.63;0.63;;;;;;;19.07;59.92;94978.78;5049701;28;20303;-75
2023/10/10 10:55:39;;;;;;;1.23;0.90;;;;;;;18.95;60.25;94979.00;5050491;28;20243;-76
2023/10/10 10:58:07;;;;;;;0.60;0.60;;;;;;;18.90;60.46;94974.63;5050637;28;20276;-75
2023/10/10 11:00:56;;;;;;;0.28;0.28;;;;;;;18.87;60.45;94974.56;5050493;28;20253;-76
2023/10/10 11:03:32;;;;;;;1.75;0.73;;;;;;;18.83;60.28;94969.06;5050656;28;20297;-77
2023/10/10 11:05:59;;;;;;;1.00;0.90;;;;;;;18.75;60.63;94973.63;5051143;28;20552;-76
2023/10/10 11:11:23;;;;;;;1.25;0.57;;;;;;;18.94;60.26;94975.47;5050117;28;20322;-77
2023/10/10 11:13:51;;;;;;;0.80;0.80;;;;;;;18.81;60.52;94974.13;5050531;28;20578;-77
2023/10/10 11:16:19;;;;;;;1.27;1.13;;;;;;;18.84;60.14;94976.13;5050445;28;20207;-76
2023/10/10 11:18:57;;;;;;;0.20;0.20;;;;;;;18.91;60.10;94986.41;5049428;28;20625;-76
2023/10/10 11:21:28;;;;;;;0.52;0.40;;;;;;;18.97;59.88;94980.22;5048798;28;20212;-75
2023/10/10 11:23:58;;;;;;;0.20;0.20;;;;;;;18.93;59.38;94976.63;5050427;28;20581;-75
2023/10/10 11:26:34;;;;;;;0.40;0.40;;;;;;;19.05;59.57;94972.88;5050546;28;20647;-75
2023/10/10 11:29:01;;;;;;;0.20;0.20;;;;;;;18.97;59.51;94979.44;5049757;28;20622;-75
2023/10/10 11:31:47;;;;;;;0.10;0.10;;;;;;;19.00;59.34;94973.19;5050415;28;20318;-77
2023/10/10 11:34:26;;;;;;;0.20;0.20;;;;;;;18.96;59.16;94972.38;5050197;28;20302;-77
2023/10/10 11:37:13;;;;;;;1.25;0.73;;;;;;;19.01;59.01;94975.56;5042885;28;20207;-77
2023/10/10 11:39:57;;;;;;;0.30;0.30;;;;;;;19.00;59.16;94979.47;5056818;28;20194;-76
2023/10/10 11:42:28;;;;;;;1.58;0.80;;;;;;;19.08;58.87;94978.41;5057156;28;20218;-76
2023/10/10 11:45:01;;;;;;;1.02;0.60;;;;;;;19.02;58.99;94966.16;5055726;28;20210;-76
2023/10/10 11:47:28;;;;;;;0.75;0.70;;;;;;;19.02;58.74;94971.66;5050628;28;20287;-75
2023/10/10 11:50:05;;;;;;;6.00;0.75;;;;;;;19.04;58.69;94963.84;5049747;28;20261;-76
2023/10/10 11:52:33;;;;;;;0.47;0.47;;;;;;;19.12;58.84;94970.22;5047680;28;20687;-77
2023/10/10 11:55:07;;;;;;;0.68;0.68;;;;;;;18.94;58.97;94967.25;5046104;28;20661;-77
2023/10/10 11:57:34;;;;;;;0.52;0.52;;;;;;;18.81;59.24;94971.38;5048540;28;20196;-76
2023/10/10 12:00:07;;;;;;;0.50;0.50;;;;;;;18.77;59.92;94970.53;5049945;28;20644;-76
2023/10/10 12:02:40;;;;;;;0.30;0.30;;;;;;;18.84;60.11;94975.34;5045605;28;20758;-77
2023/10/10 12:08:00;;;;;;;0.73;0.73;;;;;;;18.64;60.40;94980.16;5049263;28;20232;-77
2023/10/10 12:10:42;;;;;;;0.20;0.20;;;;;;;18.57;60.53;94972.59;5046130;28;20224;-77
2023/10/10 12:13:12;;;;;;;0.20;0.20;;;;;;;18.55;60.39;94974.91;5046309;28;20265;-75
2023/10/10 12:15:40;;;;;;;0.10;0.10;;;;;;;18.47;60.52;94968.50;5049522;28;20616;-77
2023/10/10 12:18:10;;;;;;;0.40;0.40;;;;;;;18.54;60.82;94967.03;5049493;28;20207;-77
2023/10/10 12:20:42;;;;;;;0.28;0.28;;;;;;;18.53;60.78;94969.00;5049166;28;20297;-76
2023/10/10 12:23:09;;;;;;;0.30;0.30;;;;;;;18.48;60.50;94969.28;5049748;28;20211;-76
2023/10/10 12:25:40;;;;;;;0.73;0.70;;;;;;;18.53;60.27;94970.94;5048927;28;20233;-77
2023/10/10 12:28:09;;;;;;;1.50;0.75;;;;;;;18.63;60.75;94964.84;5050112;28;20542;-76
2023/10/10 12:30:40;;;;;;;1.13;0.95;;;;;;;18.65;60.43;94973.50;5056317;28;20215;-77
2023/10/10 12:33:08;;;;;;;0.52;0.52;;;;;;;18.68;59.93;94967.28;5062583;28;20199;-76
2023/10/10 12:35:35;;;;;;;0.80;0.60;;;;;;;18.70;59.94;94960.25;5057743;28;20213;-76
2023/10/10 12:38:02;;;;;;;0.20;0.20;;;;;;;18.72;59.63;94968.13;5061043;28;20210;-76
2023/10/10 12:40:29;;;;;;;0.30;0.30;;;;;;;18.65;59.46;94962.53;5053437;28;20728;-76
2023/10/10 12:42:57;;;;;;;1.60;1.15;;;;;;;18.58;59.74;94970.63;5052746;28;20219;-76
2023/10/10 12:45:24;;;;;;;0.30;0.30;;;;;;;18.58;59.31;94970.63;5047369;28;20227;-76
2023/10/10 12:47:52;;;;;;;0.10;0.10;;;;;;;18.54;58.68;94967.03;5051297;28;20230;-77
2023/10/10 12:50:26;;;;;;;0.22;0.20;;;;;;;18.51;58.70;94974.06;5052578;28;20687;-78
2023/10/10 12:53:03;;;;;;;1.05;0.70;;;;;;;18.48;59.09;94975.56;5052718;28;20187;-77
2023/10/10 12:55:30;;;;;;;1.45;0.77;;;;;;;18.52;59.41;94981.13;5052174;28;20208;-78
2023/10/10 12:57:59;;;;;;;1.02;0.65;;;;;;;18.59;59.26;94977.72;5052988;28;20204;-76
2023/10/10 13:00:33;;;;;;;4.57;1.35;;;;;;;18.54;58.96;94972.53;5051921;28;20212;-75
2023/10/10 13:03:00;;;;;;;0.40;0.40;;;;;;;18.52;59.26;94969.34;5053042;28;20215;-77
2023/10/10 13:05:28;;;;;;;1.13;1.00;;;;;;;18.54;59.61;94967.84;5054952;28;20199;-76
2023/10/10 13:07:58;;;;;;;2.10;0.88;;;;;;;18.54;59.77;94956.84;5053143;28;20605;-77
2023/10/10 13:10:28;;;;;;;1.48;1.33;;;;;;;18.59;59.65;94959.28;5050449;28;20246;-77
2023/10/10 13:12:57;;;;;;;0.63;0.63;;;;;;;18.62;59.59;94974.22;5053055;28;20204;-77
2023/10/10 13:15:30;;;;;;;0.20;0.20;;;;;;;18.68;59.36;94967.28;5052337;28;20302;-75
2023/10/10 13:20:39;;;;;;;0.40;0.40;;;;;;;18.73;59.32;94964.19;5051288;28;20231;-75
2023/10/10 13:23:07;;;;;;;0.20;0.20;;;;;;;18.71;59.23;94961.84;5052499;28;20680;-76
2023/10/10 13:25:37;;;;;;;0.20;0.20;;;;;;;18.88;58.81;94957.72;5051768;28;20208;-77
2023/10/10 13:28:09;;;;;;;0.30;0.30;;;;;;;18.97;58.52;94963.75;5052302;28;20205;-78
2023/10/10 13:30:39;;;;;;;0.73;0.73;;;;;;;18.97;58.60;94961.00;5051657;28;20242;-77
2023/10/10 13:33:07;;;;;;;2.20;0.90;;;;;;;18.96;58.72;94964.91;5052175;28;20204;-80
2023/10/10 13:35:37;;;;;;;1.70;0.93;;;;;;;18.96;59.10;94959.44;5051245;28;20207;-78
2023/10/10 13:38:04;;;;;;;1.02;0.95;;;;;;;18.92;58.87;94966.81;5051802;28;20204;-77
2023/10/10 13:40:37;;;;;;;0.10;0.10;;;;;;;18.85;59.09;94961.25;5051310;28;20208;-78
2023/10/10 13:43:08;;;;;;;2.15;0.95;;;;;;;18.84;59.29;94962.41;5050526;28;20282;-78
2023/10/10 13:45:37;;;;;;;0.52;0.40;;;;;;;18.86;59.15;94968.28;5044477;28;20196;-78
2023/10/10 13:48:09;;;;;;;0.65;0.65;;;;;;;18.75;59.49;94964.63;5045601;28;20204;-80
2023/10/10 13:50:46;;;;;;;0.20;0.20;;;;;;;18.70;60.02;94962.22;5045231;28;20238;-78
2023/10/10 13:53:14;;;;;;;1.65;0.75;;;;;;;18.70;60.08;94971.25;5047051;28;20203;-78
2023/10/10 13:55:42;;;;;;;0.10;0.10;;;;;;;18.75;60.02;94967.34;5040195;28;20204;-77
2023/10/10 13:58:12;;;;;;;0.20;0.20;;;;;;;18.70;60.11;94968.50;5046971;28;20636;-78
2023/10/10 14:00:41;;;;;;;0.40;0.40;;;;;;;18.62;60.40;94968.75;5052209;28;20196;-78